East Kane, Pennsylvania
Current Conditions -  °F | °C
As of 1:53 AM on Sunday 23 Nov 2014 (Local Time) from KBFD Reporting Station
Overcast Overcast  
Wind Chill: 38°   Ceiling: 3200
Heat Index: 42°   Visibility: 10mi
Dew Point: 33°   Wind: 7mph
Humidity: 70%   Direction: NA
Pressure: 30.06"   Gusts: NA
Location:  41.6807°N, 78.6908°W
Report Text: KBFD 230653Z AUTO VRB06KT 10SM OVC032 06/01 A3006 RMK AO2 RAB10E22 SLP191 P0000 T00560006
Loading
Personal Weather Stations






























Interactive Weather Map New forecast layout! Learn more

10-Day Weather Forecast

Advertisements
Track Severe Weather on mobile